Time,TemperatureF,DewpointF,PressureIn,WindDirection,WindDirectionDegrees,WindSpeedMPH,WindSpeedGustMPH,Humidity,HourlyPrecipIn,Conditions,Clouds,dailyrainin,SolarRadiationWatts/m^2,SoftwareType,DateUTC
2013-03-08 00:00:00,41.9,37.4,30.28,SE,135,0.0,0.0,84,0.00,,---,0.00,0.00,VWS V14.01,2013-03-08 06:00:00,
2013-03-08 00:30:00,40.8,36.7,30.26,SE,135,0.0,1.0,85,0.00,,---,0.00,0.00,VWS V14.01,2013-03-08 06:30:00,
2013-03-08 01:00:00,40.0,36.5,30.26,SE,135,0.0,0.0,87,0.00,,---,0.00,0.00,VWS V14.01,2013-03-08 07:00:00,
2013-03-08 01:30:00,39.3,35.8,30.27,SE,135,0.0,0.0,87,0.00,,---,0.00,0.00,VWS V14.01,2013-03-08 07:30:00,
2013-03-08 02:00:00,38.7,35.5,30.25,SE,135,0.0,0.0,88,0.00,,---,0.00,0.00,VWS V14.01,2013-03-08 08:00:00,
2013-03-08 02:30:00,38.4,35.5,30.24,SE,135,0.0,0.0,89,0.00,,---,0.00,0.00,VWS V14.01,2013-03-08 08:30:00,
2013-03-08 03:00:00,39.1,36.4,30.24,SE,135,0.0,0.0,90,0.00,,---,0.00,0.00,VWS V14.01,2013-03-08 09:00:00,
2013-03-08 03:30:00,39.7,37.3,30.23,SE,135,0.0,0.0,91,0.00,,---,0.00,0.00,VWS V14.01,2013-03-08 09:30:00,
2013-03-08 04:00:00,40.2,38.1,30.23,SE,135,0.0,0.0,92,0.00,,---,0.00,0.00,VWS V14.01,2013-03-08 10:00:00,
2013-03-08 04:30:00,40.7,38.6,30.22,SE,135,0.0,0.0,92,0.00,,---,0.00,0.00,VWS V14.01,2013-03-08 10:30:00,
2013-03-08 05:00:00,41.0,38.9,30.23,SE,135,0.0,0.0,92,0.00,,---,0.00,0.00,VWS V14.01,2013-03-08 11:00:00,
2013-03-08 05:30:00,41.5,39.6,30.24,SE,135,0.0,0.0,93,0.00,,---,0.00,0.00,VWS V14.01,2013-03-08 11:30:00,
2013-03-08 06:00:00,41.8,39.9,30.24,SE,135,0.0,0.0,93,0.00,,---,0.00,0.00,VWS V14.01,2013-03-08 12:00:00,
2013-03-08 06:30:00,42.0,40.1,30.25,SE,135,0.0,0.0,93,0.00,,---,0.00,0.00,VWS V14.01,2013-03-08 12:30:00,
2013-03-08 07:00:00,42.1,40.2,30.25,SE,135,0.0,0.0,93,0.00,,---,0.00,9.00,VWS V14.01,2013-03-08 13:00:00,
2013-03-08 07:30:00,43.0,41.4,30.27,SE,135,0.0,0.0,94,0.00,,---,0.00,59.00,VWS V14.01,2013-03-08 13:30:00,
2013-03-08 08:00:00,46.8,45.5,30.28,ENE,68,0.0,2.0,95,0.00,,---,0.00,115.00,VWS V14.01,2013-03-08 14:00:00,
2013-03-08 08:30:00,53.0,51.6,30.28,ENE,68,0.0,2.0,95,0.00,,---,0.00,141.00,VWS V14.01,2013-03-08 14:30:00,
2013-03-08 09:00:00,57.7,52.6,30.29,NE,45,0.0,3.0,83,0.00,,---,0.00,227.00,VWS V14.01,2013-03-08 15:00:00,
2013-03-08 09:30:00,60.8,54.3,30.30,SE,135,1.0,5.0,79,0.00,,---,0.00,387.00,VWS V14.01,2013-03-08 15:30:00,
2013-03-08 10:00:00,65.3,56.4,30.29,ESE,112,1.0,6.0,73,0.00,,---,0.00,572.00,VWS V14.01,2013-03-08 16:00:00,
2013-03-08 10:30:00,67.4,56.9,30.29,SSE,158,2.0,8.0,69,0.00,,---,0.00,619.00,VWS V14.01,2013-03-08 16:30:00,
2013-03-08 11:00:00,69.8,57.9,30.29,SSE,158,2.0,7.0,66,0.00,,---,0.00,667.00,VWS V14.01,2013-03-08 17:00:00,
2013-03-08 11:30:00,68.7,58.1,30.29,SE,135,2.0,8.0,69,0.00,,---,0.00,464.00,VWS V14.01,2013-03-08 17:30:00,
2013-03-08 12:00:00,69.8,57.9,30.28,SE,135,2.0,8.0,66,0.00,,---,0.00,407.00,VWS V14.01,2013-03-08 18:00:00,
2013-03-08 12:30:00,72.3,59.5,30.26,SSE,158,2.0,6.0,64,0.00,,---,0.00,499.00,VWS V14.01,2013-03-08 18:30:00,
2013-03-08 13:00:00,72.0,57.8,30.24,SSE,158,3.0,9.0,61,0.00,,---,0.00,626.00,VWS V14.01,2013-03-08 19:00:00,
2013-03-08 13:30:00,72.6,57.5,30.22,SSE,158,4.0,9.0,59,0.00,,---,0.00,478.00,VWS V14.01,2013-03-08 19:30:00,
2013-03-08 14:00:00,74.4,57.7,30.21,ESE,112,2.0,8.0,56,0.00,,---,0.00,266.00,VWS V14.01,2013-03-08 20:00:00,
2013-03-08 14:30:00,73.7,56.5,30.19,SSE,158,3.0,10.0,55,0.00,,---,0.00,473.00,VWS V14.01,2013-03-08 20:30:00,
2013-03-08 15:00:00,72.6,56.0,30.17,SE,135,2.0,9.0,56,0.00,,---,0.00,294.00,VWS V14.01,2013-03-08 21:00:00,
2013-03-08 15:30:00,73.4,56.3,30.17,SSE,158,3.0,10.0,55,0.00,,---,0.00,333.00,VWS V14.01,2013-03-08 21:30:00,
2013-03-08 16:00:00,71.3,55.8,30.16,SE,135,2.0,10.0,58,0.00,,---,0.00,325.00,VWS V14.01,2013-03-08 22:00:00,
2013-03-08 16:30:00,72.0,55.5,30.16,SSE,158,3.0,10.0,56,0.00,,---,0.00,248.00,VWS V14.01,2013-03-08 22:30:00,
2013-03-08 17:00:00,69.1,55.5,30.17,SE,135,2.0,9.0,62,0.00,,---,0.00,174.00,VWS V14.01,2013-03-08 23:00:00,
2013-03-08 17:30:00,67.1,55.8,30.18,SE,135,2.0,8.0,67,0.00,,---,0.00,60.00,VWS V14.01,2013-03-08 23:30:00,
2013-03-08 18:00:00,65.9,55.5,30.19,SSE,158,2.0,7.0,69,0.00,,---,0.00,29.00,VWS V14.01,2013-03-09 00:00:00,
2013-03-08 18:30:00,65.2,54.8,30.20,SE,135,2.0,8.0,69,0.00,,---,0.00,5.00,VWS V14.01,2013-03-09 00:30:00,
2013-03-08 19:00:00,64.4,54.8,30.20,SE,135,2.0,6.0,71,0.00,,---,0.00,0.00,VWS V14.01,2013-03-09 01:00:00,
2013-03-08 19:30:00,63.4,55.0,30.20,SE,135,2.0,7.0,74,0.00,,---,0.00,0.00,VWS V14.01,2013-03-09 01:30:00,
2013-03-08 20:00:00,62.5,54.5,30.18,SSE,158,2.0,7.0,75,0.00,,---,0.00,0.00,VWS V14.01,2013-03-09 02:00:00,
2013-03-08 20:30:00,61.9,54.6,30.17,SE,135,1.0,6.0,77,0.00,,---,0.00,0.00,VWS V14.01,2013-03-09 02:30:00,
2013-03-08 21:00:00,61.0,54.1,30.16,SE,135,1.0,5.0,78,0.00,,---,0.00,0.00,VWS V14.01,2013-03-09 03:00:00,
2013-03-08 21:30:00,60.3,54.1,30.16,SE,135,1.0,8.0,80,0.00,,---,0.00,0.00,VWS V14.01,2013-03-09 03:30:00,
2013-03-08 22:00:00,59.6,53.4,30.16,ESE,112,0.0,3.0,80,0.00,,---,0.00,0.00,VWS V14.01,2013-03-09 04:00:00,
2013-03-08 22:30:00,58.7,52.9,30.16,SE,135,1.0,4.0,81,0.00,,---,0.00,0.00,VWS V14.01,2013-03-09 04:30:00,
2013-03-08 23:00:00,57.7,52.2,30.15,SE,135,0.0,3.0,82,0.00,,---,0.00,0.00,VWS V14.01,2013-03-09 05:00:00,
2013-03-08 23:30:00,57.1,52.6,30.15,SE,135,0.0,1.0,85,0.00,,---,0.00,0.00,VWS V14.01,2013-03-09 05:30:00,